Brecht, Belgium
Current Conditions -  °F | °C
As of 6:50 AM on Wednesday 22 Oct 2014 (Local Time) from EBAW Reporting Station
Rain Showers Rain Showers  
Wind Chill: 41°   Ceiling: 3700
Heat Index: 48°   Visibility: 6mi
Dew Point: 41°   Wind: 22mph
Humidity: 76%   Direction: 300°WNW
Pressure: 30.03"   Gusts: 33mph
Location:  51.35°N, 4.64°E
Report Text: EBAW 220450Z 30019G29KT 9999 -SHRA FEW019 BKN037 09/05 Q1017 TEMPO 29018G30KT
Loading
Personal Weather Stations






























Interactive Weather Map
Tropical Storm Tracking
New forecast layout! Learn more

10-Day Weather Forecast

Advertisements
Track Severe Weather on mobile